Time;durP1;ratioP1;P1;durP2;ratioP2;P2;SDS_P1;SDS_P2;PMS_P1;PMS_P2;Temp;Humidity;BMP_temperature;BMP_pressure;BME280_temperature;BME280_humidity;BME280_pressure;Samples;Min_cycle;Max_cycle;Signal;HPM_P1;HPM_P2
2023/08/21 00:02:25;;;;;;;6.50;4.70;;;;;;;18.73;77.67;102422.94;7406002;19;19926;-75
2023/08/21 00:04:54;;;;;;;13.38;5.25;;;;;;;18.69;78.40;102427.09;7405933;19;19922;-76
2023/08/21 00:07:25;;;;;;;8.95;3.95;;;;;;;18.62;79.50;102423.44;7405309;19;19936;-75
2023/08/21 00:09:54;;;;;;;7.47;4.55;;;;;;;18.57;79.24;102418.56;7405714;19;20014;-76
2023/08/21 00:12:22;;;;;;;5.65;3.00;;;;;;;18.52;80.17;102417.41;7403830;19;19914;-76
2023/08/21 00:14:51;;;;;;;8.82;3.50;;;;;;;18.47;80.10;102412.53;7405148;19;20358;-76
2023/08/21 00:17:19;;;;;;;6.90;4.18;;;;;;;18.48;80.13;102410.63;7405781;19;19935;-76
2023/08/21 00:19:48;;;;;;;7.75;4.30;;;;;;;18.51;79.69;102421.16;7404840;19;19918;-76
2023/08/21 00:22:17;;;;;;;8.88;4.30;;;;;;;18.51;79.87;102415.72;7404978;19;19915;-76
2023/08/21 00:24:48;;;;;;;7.03;4.20;;;;;;;18.50;80.29;102416.75;7405485;19;19958;-76
2023/08/21 00:27:16;;;;;;;7.35;4.00;;;;;;;18.49;80.19;102423.25;7404776;19;19974;-76
2023/08/21 00:29:45;;;;;;;11.82;4.55;;;;;;;18.52;79.54;102426.47;7404524;19;19915;-76
2023/08/21 00:32:14;;;;;;;10.77;4.32;;;;;;;18.56;79.24;102416.00;7403028;19;19922;-77
2023/08/21 00:34:43;;;;;;;10.13;4.35;;;;;;;18.57;78.52;102424.03;7402878;19;19914;-76
2023/08/21 00:37:12;;;;;;;8.75;4.10;;;;;;;18.59;78.35;102419.19;7402250;19;19922;-76
2023/08/21 00:39:40;;;;;;;6.28;3.88;;;;;;;18.60;78.38;102422.78;7403166;19;19946;-76
2023/08/21 00:42:11;;;;;;;7.90;4.60;;;;;;;18.56;78.48;102419.59;7403709;19;19919;-76
2023/08/21 00:44:40;;;;;;;7.72;4.50;;;;;;;18.52;78.49;102420.13;7403586;19;19911;-76
2023/08/21 00:47:09;;;;;;;8.00;3.95;;;;;;;18.47;78.33;102420.72;7401881;19;19922;-76
2023/08/21 00:49:39;;;;;;;8.38;4.40;;;;;;;18.42;78.17;102420.44;7403131;19;19918;-75
2023/08/21 00:52:10;;;;;;;7.75;4.15;;;;;;;18.40;78.61;102424.41;7402738;19;19919;-75
2023/08/21 00:54:40;;;;;;;10.85;5.03;;;;;;;18.39;78.54;102425.44;7403279;19;20442;-76
2023/08/21 00:57:08;;;;;;;8.40;4.65;;;;;;;18.36;78.89;102425.81;7403834;19;19932;-76
2023/08/21 00:59:41;;;;;;;10.07;4.75;;;;;;;18.29;78.82;102424.91;7402843;19;19923;-76
2023/08/21 01:02:09;;;;;;;8.18;4.30;;;;;;;18.26;78.58;102427.97;7403592;19;20249;-75
2023/08/21 01:04:38;;;;;;;8.05;4.65;;;;;;;18.24;78.90;102419.16;7403374;19;19950;-75
2023/08/21 01:07:09;;;;;;;8.63;4.65;;;;;;;18.19;79.04;102419.72;7403086;19;19931;-75
2023/08/21 01:09:45;;;;;;;8.43;4.63;;;;;;;18.17;78.81;102423.66;7403122;19;19922;-75
2023/08/21 01:12:24;;;;;;;7.03;4.43;;;;;;;18.17;78.78;102427.25;7402312;19;19939;-76
2023/08/21 01:15:02;;;;;;;7.38;4.47;;;;;;;18.16;78.85;102422.00;7402745;19;19950;-76
2023/08/21 01:17:32;;;;;;;7.65;3.97;;;;;;;18.14;78.70;102425.75;7403005;19;19994;-76
2023/08/21 01:20:02;;;;;;;6.47;4.38;;;;;;;18.12;78.56;102425.06;7402731;19;19923;-76
2023/08/21 01:22:38;;;;;;;5.38;3.53;;;;;;;18.06;78.95;102416.81;7402413;19;19914;-76
2023/08/21 01:25:11;;;;;;;8.40;5.07;;;;;;;18.10;78.90;102429.03;7402451;19;19922;-75
2023/08/21 01:27:42;;;;;;;10.48;5.78;;;;;;;18.10;78.87;102421.72;7402564;19;19918;-76
2023/08/21 01:30:11;;;;;;;7.72;4.35;;;;;;;18.07;78.81;102427.53;7402547;19;19930;-76
2023/08/21 01:32:45;;;;;;;10.35;4.80;;;;;;;18.02;79.26;102432.72;7401054;19;19911;-76
2023/08/21 01:35:15;;;;;;;10.27;5.20;;;;;;;17.97;79.27;102426.97;7402044;19;20265;-75
2023/08/21 01:37:44;;;;;;;10.65;5.75;;;;;;;17.94;79.59;102424.63;7402359;19;19925;-75
2023/08/21 01:40:23;;;;;;;11.85;5.50;;;;;;;17.89;79.69;102432.53;7401274;19;19913;-76
2023/08/21 01:42:52;;;;;;;6.75;5.00;;;;;;;17.91;79.56;102426.84;7402240;19;19915;-75
2023/08/21 01:45:20;;;;;;;10.52;4.68;;;;;;;17.89;79.46;102432.53;7402262;19;19943;-76
2023/08/21 01:47:49;;;;;;;7.38;4.32;;;;;;;17.87;79.28;102433.72;7401007;19;19926;-76
2023/08/21 01:50:18;;;;;;;8.23;4.90;;;;;;;17.84;79.43;102429.50;7401752;19;20283;-76
2023/08/21 01:52:46;;;;;;;7.50;4.63;;;;;;;17.80;79.58;102436.38;7400876;19;20317;-75
2023/08/21 01:55:18;;;;;;;8.75;5.35;;;;;;;17.77;79.50;102436.75;7401384;19;19934;-75
2023/08/21 01:57:47;;;;;;;9.32;5.00;;;;;;;17.74;79.51;102441.69;7401621;19;19915;-75
2023/08/21 02:00:17;;;;;;;7.13;6.03;;;;;;;17.72;79.56;102436.44;7401210;19;19926;-75
2023/08/21 02:02:45;;;;;;;9.02;4.97;;;;;;;17.68;79.65;102440.59;7401399;19;19932;-76
2023/08/21 02:05:14;;;;;;;8.80;4.88;;;;;;;17.63;79.67;102438.41;7401388;19;19939;-76
2023/08/21 02:07:42;;;;;;;7.97;5.07;;;;;;;17.62;79.89;102439.44;7401138;19;19919;-76
2023/08/21 02:10:13;;;;;;;7.00;4.82;;;;;;;17.62;79.49;102442.16;7401184;19;19915;-75
2023/08/21 02:12:44;;;;;;;7.20;4.90;;;;;;;17.60;80.01;102446.13;7400441;19;20576;-76
2023/08/21 02:15:13;;;;;;;7.53;4.63;;;;;;;17.55;80.01;102438.47;7401860;19;20410;-75
2023/08/21 02:17:43;;;;;;;7.43;4.72;;;;;;;17.52;79.62;102441.53;7401095;19;19918;-76
2023/08/21 02:20:13;;;;;;;6.05;4.30;;;;;;;17.48;79.68;102433.91;7401172;19;19918;-76
2023/08/21 02:22:42;;;;;;;6.25;4.15;;;;;;;17.45;79.61;102434.28;7401082;19;19930;-76
2023/08/21 02:25:11;;;;;;;8.15;4.15;;;;;;;17.44;79.99;102440.75;7400661;19;19943;-76
2023/08/21 02:27:40;;;;;;;6.70;3.58;;;;;;;17.43;79.87;102439.09;7401224;19;19942;-76
2023/08/21 02:30:12;;;;;;;5.05;3.33;;;;;;;17.39;79.41;102443.19;7401161;19;19925;-75
2023/08/21 02:32:41;;;;;;;6.80;3.58;;;;;;;17.34;80.31;102437.47;7401203;19;19915;-76
2023/08/21 02:35:11;;;;;;;5.72;3.78;;;;;;;17.33;80.32;102439.34;7403022;19;19918;-75
2023/08/21 02:37:40;;;;;;;7.00;4.47;;;;;;;17.31;80.28;102443.25;7405011;19;19953;-76
2023/08/21 02:40:11;;;;;;;5.20;3.15;;;;;;;17.29;80.12;102442.59;7407971;19;19936;-75
2023/08/21 02:42:40;;;;;;;4.90;2.47;;;;;;;17.26;80.10;102446.53;7408105;19;19921;-76
2023/08/21 02:45:12;;;;;;;3.95;1.90;;;;;;;17.22;79.79;102445.19;7399440;19;20357;-75
2023/08/21 02:47:42;;;;;;;1.75;1.52;;;;;;;17.16;79.28;102448.66;7401427;19;19924;-75
2023/08/21 02:50:11;;;;;;;2.33;1.50;;;;;;;17.12;79.58;102445.47;7401008;19;20285;-76
2023/08/21 02:52:41;;;;;;;1.95;1.55;;;;;;;17.08;79.43;102444.13;7400384;19;19938;-76
2023/08/21 02:55:10;;;;;;;2.20;1.38;;;;;;;17.01;79.16;102445.88;7400531;19;19919;-76
2023/08/21 02:57:39;;;;;;;2.85;1.58;;;;;;;16.96;79.25;102442.84;7399662;19;19915;-76
2023/08/21 03:00:11;;;;;;;3.35;1.60;;;;;;;16.91;79.20;102438.97;7398816;19;19946;-75
2023/08/21 03:02:42;;;;;;;1.63;1.20;;;;;;;16.87;79.54;102441.19;7399973;19;19929;-75
2023/08/21 03:05:11;;;;;;;2.50;1.58;;;;;;;16.81;79.71;102447.38;7400199;19;19926;-75
2023/08/21 03:07:40;;;;;;;1.98;1.77;;;;;;;16.75;79.83;102442.63;7400244;19;19957;-76
2023/08/21 03:10:10;;;;;;;3.17;1.77;;;;;;;16.73;79.89;102441.97;7400453;19;19911;-76
2023/08/21 03:12:39;;;;;;;3.75;1.42;;;;;;;16.70;79.80;102440.44;7399617;19;19950;-75
2023/08/21 03:15:11;;;;;;;2.78;1.70;;;;;;;16.69;80.00;102444.22;7399920;19;19926;-76
2023/08/21 03:17:40;;;;;;;1.83;1.10;;;;;;;16.70;79.61;102445.88;7399443;19;20359;-76
2023/08/21 03:20:10;;;;;;;1.45;1.30;;;;;;;16.69;79.50;102443.38;7399312;19;19946;-75
2023/08/21 03:22:39;;;;;;;6.57;2.88;;;;;;;16.67;80.00;102450.84;7398703;19;19911;-76
2023/08/21 03:25:08;;;;;;;2.53;1.63;;;;;;;16.67;79.78;102440.81;7398883;19;19942;-76
2023/08/21 03:27:39;;;;;;;3.60;1.92;;;;;;;16.62;79.59;102447.81;7398581;19;19954;-76
2023/08/21 03:30:14;;;;;;;3.85;1.65;;;;;;;16.57;79.93;102434.75;7398792;19;19914;-76
2023/08/21 03:32:43;;;;;;;3.40;1.20;;;;;;;16.52;80.03;102439.00;7398482;19;19918;-76
2023/08/21 03:35:11;;;;;;;2.03;1.35;;;;;;;16.49;79.81;102437.47;7398431;19;19922;-76
2023/08/21 03:37:40;;;;;;;1.48;1.20;;;;;;;16.45;79.95;102433.41;7399410;19;20277;-75
2023/08/21 03:40:10;;;;;;;2.97;1.30;;;;;;;16.46;79.81;102428.81;7397385;19;20360;-75
2023/08/21 03:42:39;;;;;;;2.30;1.60;;;;;;;16.41;79.47;102431.22;7398389;19;19922;-76
2023/08/21 03:45:11;;;;;;;5.47;2.05;;;;;;;16.38;79.91;102426.16;7398537;19;19934;-76
2023/08/21 03:47:40;;;;;;;2.05;1.67;;;;;;;16.32;80.07;102419.53;7398655;19;20293;-76
2023/08/21 03:50:10;;;;;;;2.78;1.80;;;;;;;16.30;80.26;102424.31;7399015;19;19914;-76
2023/08/21 03:52:38;;;;;;;1.90;1.60;;;;;;;16.28;80.04;102418.19;7397443;19;19923;-76
2023/08/21 03:55:07;;;;;;;4.13;1.70;;;;;;;16.28;79.98;102420.91;7398017;19;19911;-76
2023/08/21 03:57:36;;;;;;;2.10;1.50;;;;;;;16.26;79.86;102412.09;7397618;19;20376;-76
2023/08/21 04:00:06;;;;;;;2.83;1.90;;;;;;;16.26;80.10;102425.69;7397875;19;20311;-76
2023/08/21 04:02:37;;;;;;;5.80;2.13;;;;;;;16.30;79.77;102417.00;7397952;19;19978;-76
2023/08/21 04:05:07;;;;;;;3.33;2.00;;;;;;;16.32;79.94;102414.09;7397641;19;19922;-76
2023/08/21 04:07:36;;;;;;;2.78;1.60;;;;;;;16.27;79.50;102411.06;7397576;19;19923;-76
2023/08/21 04:10:05;;;;;;;1.52;1.40;;;;;;;16.25;79.79;102416.69;7399967;19;19926;-76
2023/08/21 04:12:33;;;;;;;4.10;1.80;;;;;;;16.23;79.82;102423.31;7404194;19;20261;-75
2023/08/21 04:15:02;;;;;;;3.33;1.92;;;;;;;16.18;79.69;102429.28;7404560;19;19941;-76
2023/08/21 04:17:31;;;;;;;4.07;1.95;;;;;;;16.15;79.78;102426.91;7404242;19;20316;-76
2023/08/21 04:20:05;;;;;;;3.60;2.00;;;;;;;16.11;79.96;102433.72;7404659;19;19914;-76
2023/08/21 04:22:34;;;;;;;5.25;2.30;;;;;;;16.08;80.36;102430.53;7404463;19;19919;-76
2023/08/21 04:25:03;;;;;;;5.85;2.00;;;;;;;16.07;80.41;102429.66;7404338;19;19918;-76
2023/08/21 04:27:32;;;;;;;4.97;2.30;;;;;;;16.04;80.81;102427.31;7404387;19;20383;-76
2023/08/21 04:30:01;;;;;;;3.97;2.20;;;;;;;16.04;80.58;102430.03;7404233;19;19941;-76
2023/08/21 04:32:30;;;;;;;1.75;1.65;;;;;;;16.04;80.34;102431.91;7403837;19;19942;-76
2023/08/21 04:34:59;;;;;;;2.60;1.70;;;;;;;16.03;80.61;102432.91;7401521;19;19923;-76
2023/08/21 04:37:32;;;;;;;3.92;2.03;;;;;;;16.00;80.61;102434.13;7405050;19;20256;-76
2023/08/21 04:40:01;;;;;;;3.08;1.70;;;;;;;16.03;80.42;102431.03;7403139;19;19910;-76
2023/08/21 04:42:29;;;;;;;4.18;1.75;;;;;;;16.04;80.51;102427.31;7403460;19;19919;-76
2023/08/21 04:44:58;;;;;;;3.42;1.85;;;;;;;16.03;80.21;102433.75;7403905;19;19931;-76
2023/08/21 04:47:27;;;;;;;2.78;1.95;;;;;;;16.02;80.58;102431.22;7403409;19;19911;-76
2023/08/21 04:49:57;;;;;;;3.55;2.45;;;;;;;16.01;80.86;102427.63;7403446;19;19915;-76
2023/08/21 04:52:27;;;;;;;3.90;2.40;;;;;;;16.02;80.74;102433.94;7403155;19;19918;-76
2023/08/21 04:54:58;;;;;;;2.83;2.10;;;;;;;16.02;80.74;102436.66;7401084;19;19978;-76
2023/08/21 04:57:27;;;;;;;2.88;1.80;;;;;;;16.02;80.66;102432.06;7403264;19;20023;-76
2023/08/21 04:59:55;;;;;;;4.53;2.00;;;;;;;16.00;81.00;102434.13;7403528;19;19938;-76
2023/08/21 05:02:24;;;;;;;4.93;2.13;;;;;;;16.00;80.91;102433.28;7402900;19;19925;-77
2023/08/21 05:04:52;;;;;;;5.45;2.50;;;;;;;15.99;80.84;102443.28;7402925;19;19914;-76
2023/08/21 05:07:22;;;;;;;4.07;2.25;;;;;;;15.99;81.30;102442.44;7402760;19;19918;-76
2023/08/21 05:09:50;;;;;;;2.08;1.73;;;;;;;15.98;81.29;102436.16;7402990;19;20364;-76
2023/08/21 05:12:22;;;;;;;3.85;2.28;;;;;;;16.01;81.31;102437.66;7402727;19;19919;-76
2023/08/21 05:14:50;;;;;;;2.10;1.70;;;;;;;16.03;81.19;102436.47;7400945;19;19934;-76
2023/08/21 05:17:19;;;;;;;5.22;2.00;;;;;;;16.05;81.21;102428.16;7402778;19;20270;-76
2023/08/21 05:19:47;;;;;;;5.82;2.22;;;;;;;16.07;81.70;102437.81;7403138;19;19918;-76
2023/08/21 05:22:16;;;;;;;2.78;2.00;;;;;;;16.11;81.29;102436.44;7401183;19;19939;-76
2023/08/21 05:24:45;;;;;;;4.82;2.30;;;;;;;16.12;81.18;102427.28;7402886;19;19914;-76
2023/08/21 05:27:13;;;;;;;4.03;1.85;;;;;;;16.15;81.80;102443.22;7402667;19;19914;-76
2023/08/21 05:29:45;;;;;;;4.35;2.03;;;;;;;16.18;81.96;102444.78;7402498;19;19923;-77
2023/08/21 05:32:13;;;;;;;6.20;2.47;;;;;;;16.18;81.72;102440.16;7402125;19;19918;-76
2023/08/21 05:34:42;;;;;;;3.75;1.90;;;;;;;16.21;81.53;102447.13;7400511;19;20336;-76
2023/08/21 05:37:10;;;;;;;4.43;1.88;;;;;;;16.24;81.55;102442.19;7402708;19;19915;-76
2023/08/21 05:39:39;;;;;;;3.63;2.00;;;;;;;16.27;81.85;102441.81;7401591;19;20344;-76
2023/08/21 05:42:08;;;;;;;3.65;1.67;;;;;;;16.30;81.67;102444.22;7401991;19;19946;-76
2023/08/21 05:44:37;;;;;;;5.15;2.20;;;;;;;16.29;81.60;102447.94;7402213;19;19914;-76
2023/08/21 05:47:08;;;;;;;5.47;2.53;;;;;;;16.30;81.72;102452.38;7402151;19;19911;-76
2023/08/21 05:49:36;;;;;;;5.53;2.10;;;;;;;16.33;81.69;102446.56;7402259;19;19930;-76
2023/08/21 05:52:06;;;;;;;3.67;1.85;;;;;;;16.39;81.84;102449.63;7403824;19;19982;-76
2023/08/21 05:54:34;;;;;;;4.07;2.00;;;;;;;16.41;81.58;102453.84;7403166;19;19938;-76
2023/08/21 05:57:03;;;;;;;4.22;2.80;;;;;;;16.44;82.27;102455.38;7410474;19;19918;-76
2023/08/21 05:59:33;;;;;;;8.02;2.80;;;;;;;16.48;82.63;102451.28;7409770;19;19926;-76
2023/08/21 06:02:02;;;;;;;7.30;3.20;;;;;;;16.53;83.01;102451.56;7402962;19;19918;-75
2023/08/21 06:04:33;;;;;;;6.18;3.17;;;;;;;16.56;83.44;102457.53;7402304;19;19922;-76
2023/08/21 06:07:02;;;;;;;7.25;3.15;;;;;;;16.60;82.88;102456.16;7401587;19;19914;-76
2023/08/21 06:09:33;;;;;;;8.10;3.25;;;;;;;16.66;83.33;102460.03;7401072;19;20272;-76
2023/08/21 06:12:02;;;;;;;8.48;3.03;;;;;;;16.72;83.43;102453.88;7400775;19;19935;-76
2023/08/21 06:14:31;;;;;;;12.48;3.45;;;;;;;16.80;83.03;102462.00;7400107;19;19911;-76
2023/08/21 06:17:00;;;;;;;9.05;3.22;;;;;;;16.88;83.14;102466.53;7400588;19;20241;-76
2023/08/21 06:19:28;;;;;;;9.25;3.05;;;;;;;16.93;83.00;102467.72;7400970;19;20678;-76
2023/08/21 06:22:00;;;;;;;7.03;3.65;;;;;;;17.02;83.25;102471.22;7400648;19;19918;-76
2023/08/21 06:24:29;;;;;;;7.57;3.33;;;;;;;17.08;82.95;102463.19;7400421;19;19923;-76
2023/08/21 06:26:57;;;;;;;10.38;3.22;;;;;;;17.17;83.00;102475.69;7400937;19;19910;-76
2023/08/21 06:29:27;;;;;;;5.95;3.15;;;;;;;17.24;83.22;102476.69;7400480;19;19918;-76
2023/08/21 06:31:56;;;;;;;8.10;3.35;;;;;;;17.30;83.36;102468.81;7400536;19;19914;-76
2023/08/21 06:34:24;;;;;;;5.68;3.38;;;;;;;17.38;83.14;102476.94;7396596;19;19927;-76
2023/08/21 06:36:53;;;;;;;7.78;3.50;;;;;;;17.43;82.93;102472.59;7403388;19;19923;-76
2023/08/21 06:39:24;;;;;;;7.57;3.60;;;;;;;17.51;83.21;102466.25;7399682;19;19927;-76
2023/08/21 06:41:53;;;;;;;7.80;2.75;;;;;;;17.57;82.75;102479.13;7400125;19;19914;-76
2023/08/21 06:44:21;;;;;;;7.53;2.65;;;;;;;17.65;82.08;102479.09;7400278;19;19915;-76
2023/08/21 06:46:50;;;;;;;7.25;2.47;;;;;;;17.73;81.39;102481.75;7399877;19;19926;-76
2023/08/21 06:49:18;;;;;;;6.38;1.85;;;;;;;17.80;81.37;102477.25;7399957;19;20010;-76
2023/08/21 06:51:47;;;;;;;6.35;1.88;;;;;;;17.87;81.27;102483.66;7399979;19;19938;-76
2023/08/21 06:54:16;;;;;;;5.72;2.10;;;;;;;17.95;80.87;102471.81;7398921;19;19918;-76
2023/08/21 06:56:47;;;;;;;5.32;2.08;;;;;;;18.01;80.51;102471.91;7399526;19;19933;-76
2023/08/21 06:59:15;;;;;;;6.63;1.55;;;;;;;18.09;79.99;102479.16;7399703;19;19910;-76
2023/08/21 07:01:44;;;;;;;7.25;1.20;;;;;;;18.16;78.99;102482.00;7399756;19;20566;-76
2023/08/21 07:04:13;;;;;;;13.13;1.83;;;;;;;18.23;79.17;102477.47;7399101;19;19941;-76
2023/08/21 07:06:42;;;;;;;9.50;1.80;;;;;;;18.28;79.21;102475.03;7399103;19;19963;-76
2023/08/21 07:09:11;;;;;;;7.63;1.80;;;;;;;18.36;79.87;102478.50;7399162;19;19922;-76
2023/08/21 07:11:40;;;;;;;4.78;1.70;;;;;;;18.44;79.33;102478.41;7399064;19;19934;-76
2023/08/21 07:14:13;;;;;;;5.43;1.23;;;;;;;18.50;78.18;102472.19;7398684;19;19914;-76
2023/08/21 07:16:42;;;;;;;7.00;1.55;;;;;;;18.58;78.02;102479.47;7399021;19;19918;-76
2023/08/21 07:19:10;;;;;;;4.40;1.35;;;;;;;18.65;77.96;102483.13;7398894;19;19918;-76
2023/08/21 07:21:39;;;;;;;4.15;1.50;;;;;;;18.69;77.88;102468.03;7398830;19;20256;-76
2023/08/21 07:24:08;;;;;;;4.85;1.40;;;;;;;18.75;77.61;102463.72;7399210;19;19915;-76
2023/08/21 07:26:37;;;;;;;2.15;1.10;;;;;;;18.80;77.43;102463.97;7399217;19;20237;-76
2023/08/21 07:29:08;;;;;;;6.78;2.47;;;;;;;18.87;77.99;102468.47;7399183;19;20340;-76
2023/08/21 07:31:40;;;;;;;5.93;1.65;;;;;;;18.93;78.13;102462.25;7399193;19;19942;-76
2023/08/21 07:34:08;;;;;;;5.28;1.48;;;;;;;18.99;77.71;102466.91;7398658;19;19923;-76
2023/08/21 07:36:37;;;;;;;5.32;2.10;;;;;;;19.04;77.31;102469.91;7401414;19;19921;-76
2023/08/21 07:39:06;;;;;;;9.40;2.47;;;;;;;19.11;76.66;102466.44;7398462;19;20276;-76
2023/08/21 07:41:34;;;;;;;6.15;1.60;;;;;;;19.17;76.31;102471.09;7398413;19;20344;-76
2023/08/21 07:44:04;;;;;;;4.97;1.60;;;;;;;19.21;75.66;102470.50;7398121;19;20254;-76
2023/08/21 07:46:33;;;;;;;6.10;1.60;;;;;;;19.28;75.30;102473.31;7404567;19;20349;-76
2023/08/21 07:49:04;;;;;;;6.13;2.35;;;;;;;19.32;75.41;102464.53;7404889;19;19927;-76
2023/08/21 07:51:33;;;;;;;4.55;1.50;;;;;;;19.39;75.83;102472.78;7405059;19;19918;-76
2023/08/21 07:54:02;;;;;;;2.40;0.85;;;;;;;19.44;74.10;102464.88;7405157;19;19919;-76
2023/08/21 07:56:31;;;;;;;2.20;0.82;;;;;;;19.49;73.74;102465.16;7404540;19;19926;-76
2023/08/21 07:58:59;;;;;;;4.45;1.00;;;;;;;19.54;73.27;102473.59;7405389;19;19918;-76
2023/08/21 08:01:28;;;;;;;2.33;1.00;;;;;;;19.58;72.65;102468.59;7404762;19;19936;-76
2023/08/21 08:03:56;;;;;;;4.82;0.98;;;;;;;19.63;71.84;102475.13;7404884;19;19926;-76
2023/08/21 08:06:27;;;;;;;6.00;1.10;;;;;;;19.69;71.51;102471.63;7404465;19;19942;-76
2023/08/21 08:08:56;;;;;;;2.63;0.77;;;;;;;19.73;71.53;102472.06;7404355;19;19922;-76
2023/08/21 08:11:25;;;;;;;4.70;1.17;;;;;;;19.79;71.69;102472.13;7404467;19;19918;-76
2023/08/21 08:13:54;;;;;;;6.85;1.17;;;;;;;19.85;71.39;102474.03;7404004;19;20256;-76
2023/08/21 08:16:23;;;;;;;7.07;1.40;;;;;;;19.91;71.36;102476.00;7401335;19;19922;-76
2023/08/21 08:18:51;;;;;;;5.15;0.95;;;;;;;19.99;70.71;102474.16;7403817;19;19914;-76
2023/08/21 08:21:20;;;;;;;4.07;1.05;;;;;;;20.04;69.49;102475.25;7403698;19;19915;-76
2023/08/21 08:23:51;;;;;;;4.03;0.95;;;;;;;20.13;70.18;102462.25;7404137;19;20340;-76
2023/08/21 08:26:20;;;;;;;3.88;1.05;;;;;;;20.18;69.03;102470.69;7404193;19;20262;-76
2023/08/21 08:28:48;;;;;;;2.85;0.85;;;;;;;20.23;69.17;102471.78;7403946;19;19930;-76
2023/08/21 08:31:18;;;;;;;3.53;0.95;;;;;;;20.29;68.59;102468.25;7404037;19;19918;-76
2023/08/21 08:33:47;;;;;;;2.63;0.73;;;;;;;20.32;66.15;102470.59;7403260;19;20368;-76
2023/08/21 08:36:16;;;;;;;5.03;1.10;;;;;;;20.39;66.26;102467.91;7403640;19;19952;-75
2023/08/21 08:38:45;;;;;;;4.75;0.90;;;;;;;20.42;65.91;102466.63;7403489;19;19922;-76
2023/08/21 08:41:25;;;;;;;2.38;0.80;;;;;;;20.49;66.55;102473.00;7400917;19;19925;-76
2023/08/21 08:43:57;;;;;;;4.10;0.95;;;;;;;20.58;65.10;102469.88;7403604;19;20335;-76
2023/08/21 08:46:26;;;;;;;9.20;1.70;;;;;;;20.68;64.19;102472.22;7403374;19;19914;-76
2023/08/21 08:48:56;;;;;;;5.00;0.80;;;;;;;20.75;62.78;102464.91;7403149;19;19934;-76
2023/08/21 08:51:27;;;;;;;3.95;0.88;;;;;;;20.81;63.05;102467.66;7403400;19;20320;-76
2023/08/21 08:53:56;;;;;;;3.55;0.80;;;;;;;20.88;64.08;102469.59;7403187;19;19941;-76
2023/08/21 08:56:27;;;;;;;3.00;0.70;;;;;;;20.93;62.31;102470.63;7398743;19;19942;-76
2023/08/21 08:58:56;;;;;;;2.30;0.73;;;;;;;20.99;62.54;102475.28;7404976;19;20252;-76
2023/08/21 09:01:24;;;;;;;4.20;1.20;;;;;;;21.07;63.37;102466.88;7404629;19;20300;-76
2023/08/21 09:03:53;;;;;;;1.45;0.70;;;;;;;21.12;63.06;102458.91;7404537;19;19918;-76
2023/08/21 09:06:21;;;;;;;5.13;1.02;;;;;;;21.21;63.17;102462.31;7404023;19;19918;-76
2023/08/21 09:08:56;;;;;;;3.80;1.63;;;;;;;21.27;62.30;102466.94;7406709;19;19918;-76
2023/08/21 09:11:28;;;;;;;1.95;0.70;;;;;;;21.34;61.11;102462.31;7408152;19;19926;-75
2023/08/21 09:13:58;;;;;;;2.50;0.70;;;;;;;21.42;61.16;102464.84;7402168;19;20386;-76
2023/08/21 09:16:28;;;;;;;2.78;0.70;;;;;;;21.51;60.34;102460.84;7401294;19;19914;-76
2023/08/21 09:18:59;;;;;;;2.60;1.05;;;;;;;21.60;59.75;102461.50;7402577;19;20237;-76
2023/08/21 09:21:28;;;;;;;2.88;0.82;;;;;;;21.67;58.05;102457.69;7402252;19;19922;-75
2023/08/21 09:24:02;;;;;;;3.10;0.47;;;;;;;21.74;57.12;102460.44;7401806;19;19925;-76
2023/08/21 09:26:34;;;;;;;2.67;0.77;;;;;;;21.83;57.93;102463.81;7401918;19;19923;-76
2023/08/21 09:29:07;;;;;;;1.00;0.57;;;;;;;21.94;57.22;102475.00;7401778;19;20010;-76
2023/08/21 09:31:39;;;;;;;4.68;0.85;;;;;;;22.01;56.73;102469.50;7401808;19;19939;-76
2023/08/21 09:34:09;;;;;;;3.45;0.88;;;;;;;22.07;58.13;102474.97;7402110;19;19915;-76
2023/08/21 09:36:41;;;;;;;1.38;0.80;;;;;;;22.16;56.77;102472.84;7403434;19;19926;-76
2023/08/21 09:39:18;;;;;;;4.80;0.82;;;;;;;22.22;54.63;102465.66;7401438;19;19910;-76
2023/08/21 09:41:58;;;;;;;3.08;0.68;;;;;;;22.27;54.67;102463.94;7401576;19;19926;-76
2023/08/21 09:44:27;;;;;;;3.90;0.57;;;;;;;22.40;56.13;102474.03;7401361;19;19922;-76
2023/08/21 09:46:55;;;;;;;3.40;0.70;;;;;;;22.44;55.56;102465.16;7401333;19;19925;-75
2023/08/21 09:49:25;;;;;;;2.80;0.80;;;;;;;22.50;55.19;102469.78;7401227;19;20352;-76
2023/08/21 09:51:56;;;;;;;3.67;0.60;;;;;;;22.59;54.02;102473.13;7401382;19;19943;-76
2023/08/21 09:54:25;;;;;;;1.55;0.70;;;;;;;22.64;54.67;102459.59;7401386;19;19938;-76
2023/08/21 09:56:57;;;;;;;2.40;0.60;;;;;;;22.75;54.68;102449.84;7399211;19;19923;-75
2023/08/21 09:59:26;;;;;;;;;;;;;;;22.77;53.41;102450.47;7403840;19;20318;-76
2023/08/21 10:01:55;;;;;;;2.88;1.17;;;;;;;22.97;54.98;102463.03;7401295;19;19923;-76
2023/08/21 10:04:26;;;;;;;2.78;0.80;;;;;;;23.08;54.44;102456.00;7401234;19;19919;-75
2023/08/21 10:06:56;;;;;;;3.00;1.00;;;;;;;23.11;54.48;102460.22;7401394;19;19934;-76
2023/08/21 10:09:27;;;;;;;2.63;0.75;;;;;;;23.17;54.80;102460.16;7400946;19;19931;-76
2023/08/21 10:12:00;;;;;;;1.73;0.73;;;;;;;23.22;54.22;102456.72;7401474;19;19918;-76
2023/08/21 10:14:29;;;;;;;4.20;1.15;;;;;;;23.30;53.89;102453.75;7401057;19;19930;-75
2023/08/21 10:16:58;;;;;;;2.33;1.00;;;;;;;23.39;54.13;102444.97;7399253;19;19922;-76
2023/08/21 10:19:33;;;;;;;2.45;0.60;;;;;;;23.47;51.71;102450.22;7401093;19;19926;-75
2023/08/21 10:22:03;;;;;;;2.83;0.55;;;;;;;23.54;53.77;102441.09;7400724;19;20277;-76
2023/08/21 10:24:37;;;;;;;1.95;0.60;;;;;;;23.65;52.55;102443.94;7400576;19;19919;-76
2023/08/21 10:27:09;;;;;;;4.30;0.80;;;;;;;23.76;51.75;102445.97;7400792;19;19910;-75
2023/08/21 10:29:38;;;;;;;2.92;0.80;;;;;;;23.79;52.23;102442.75;7400791;19;19918;-75
2023/08/21 10:32:08;;;;;;;2.40;0.85;;;;;;;23.85;51.31;102450.13;7400665;19;19915;-75
2023/08/21 10:34:38;;;;;;;4.68;0.60;;;;;;;23.91;50.94;102445.59;7400362;19;19936;-75
2023/08/21 10:37:14;;;;;;;3.30;1.10;;;;;;;24.00;50.53;102444.22;7398686;19;19942;-75
2023/08/21 10:39:58;;;;;;;3.00;0.75;;;;;;;24.09;48.54;102450.28;7400069;19;20406;-76
2023/08/21 10:42:44;;;;;;;1.38;0.52;;;;;;;24.09;48.18;102434.59;7400134;19;20370;-74
2023/08/21 10:45:14;;;;;;;3.28;0.82;;;;;;;24.22;49.91;102448.25;7399750;19;19923;-76
2023/08/21 10:47:46;;;;;;;1.95;0.57;;;;;;;24.35;50.05;102431.56;7399378;19;19918;-75
2023/08/21 10:50:15;;;;;;;2.35;0.60;;;;;;;24.48;49.47;102438.84;7399818;19;20351;-75
2023/08/21 10:52:45;;;;;;;5.30;0.70;;;;;;;24.59;49.65;102443.59;7399670;19;19915;-75
2023/08/21 10:55:15;;;;;;;3.97;0.70;;;;;;;24.71;48.60;102432.59;7399237;19;19923;-75
2023/08/21 10:57:48;;;;;;;2.50;0.68;;;;;;;24.83;47.54;102427.97;7399709;19;19922;-75
2023/08/21 11:00:20;;;;;;;2.80;0.63;;;;;;;24.90;46.13;102437.00;7400256;19;19938;-76
2023/08/21 11:02:51;;;;;;;1.98;0.70;;;;;;;24.92;46.50;102434.88;7399498;19;19915;-75
2023/08/21 11:05:20;;;;;;;3.10;0.70;;;;;;;24.95;46.64;102434.41;7399739;19;20008;-75
2023/08/21 11:07:50;;;;;;;2.70;0.65;;;;;;;25.00;45.99;102436.44;7399377;19;19922;-75
2023/08/21 11:10:20;;;;;;;1.58;0.70;;;;;;;25.10;46.75;102436.72;7399219;19;19999;-76
2023/08/21 11:12:56;;;;;;;2.25;0.70;;;;;;;25.21;47.16;102433.16;7399115;19;19954;-77
2023/08/21 11:15:27;;;;;;;4.25;0.70;;;;;;;25.44;46.52;102441.47;7396987;19;19926;-76
2023/08/21 11:17:58;;;;;;;1.85;0.50;;;;;;;25.45;46.41;102434.91;7398721;19;19946;-76
2023/08/21 11:20:31;;;;;;;2.85;0.95;;;;;;;25.46;45.83;102439.31;7402332;19;19942;-76
2023/08/21 11:23:02;;;;;;;4.18;0.60;;;;;;;25.56;45.41;102436.00;7404961;19;19914;-76
2023/08/21 11:25:31;;;;;;;1.73;0.70;;;;;;;25.62;45.75;102433.16;7405400;19;19918;-76
2023/08/21 11:28:02;;;;;;;2.20;0.70;;;;;;;25.70;44.43;102435.53;7405306;19;20353;-76
2023/08/21 11:30:32;;;;;;;2.00;0.90;;;;;;;25.89;45.33;102433.47;7405239;19;19923;-76
2023/08/21 11:33:08;;;;;;;2.22;0.70;;;;;;;26.03;44.05;102434.91;7404968;19;19922;-76
2023/08/21 11:35:37;;;;;;;2.42;0.80;;;;;;;26.12;43.16;102444.50;7407001;19;19946;-76
2023/08/21 11:38:06;;;;;;;1.40;0.45;;;;;;;26.13;42.49;102440.69;7403322;19;19955;-76